This is the latest recevied weather packets stored in our database for station/object KC2G. If no packets are shown the sender has not sent any weather packets the latest 10 day(s).
| Time | Temp. | Humidity | Pressure | Rain* | Wind** | Luminosity | Snow |
|---|---|---|---|---|---|---|---|
| 1777770955 | 11.11° C | 50% | 1010.8 hPa | 0 mm | 0 m/s | - | - |
| 1777770181 | 11.11° C | 45% | 1010.5 hPa | 0 mm | 0.45 m/s, 257° | - | - |
| 1777770055 | 11.11° C | 45% | 1010.5 hPa | 0 mm | 0.45 m/s, 257° | - | - |
| 1777769155 | 11.11° C | 44% | 1010.4 hPa | 0 mm | 0 m/s | - | - |
| 1777768255 | 11.11° C | 45% | 1010.4 hPa | 0 mm | 0 m/s | - | - |
| 1777767415 | 11.67° C | 44% | 1010.3 hPa | 0 mm | 0 m/s | - | - |
| 1777767355 | 11.67° C | 44% | 1010.3 hPa | 0 mm | 0 m/s | - | - |
| 1777766454 | 11.67° C | 43% | 1010.2 hPa | 0 mm | 0 m/s | - | - |
| 1777765554 | 11.67° C | 41% | 1010.2 hPa | 0 mm | 0.45 m/s, 255° | - | - |
| 1777764655 | 12.22° C | 43% | 1010 hPa | 0 mm | 0 m/s | - | - |
| 1777763754 | 12.78° C | 42% | 1009.9 hPa | 0 mm | 0 m/s | - | - |
| 1777762856 | 13.33° C | 39% | 1009.7 hPa | 0 mm | 0 m/s | - | - |
| 1777761985 | 13.89° C | 38% | 1009.5 hPa | 0 mm | 0.45 m/s, 279° | - | - |
| 1777761954 | 13.89° C | 38% | 1009.5 hPa | 0 mm | 0.45 m/s, 279° | - | - |
| 1777761055 | 14.44° C | 35% | 1009.4 hPa | 0 mm | 0.45 m/s, 284° | - | - |
| 1777760155 | 13.89° C | 37% | 1009.4 hPa | 0 mm | 0.45 m/s, 276° | - | - |
| 1777759255 | 14.44° C | 39% | 1009.3 hPa | 0 mm | 0 m/s | - | - |
| 1777758555 | 14.44° C | 35% | 1009.2 hPa | 0 mm | 0.89 m/s, 313° | - | - |
| 1777758355 | 14.44° C | 35% | 1009.2 hPa | 0 mm | 0.89 m/s, 313° | - | - |
| 1777757654 | 14.44° C | 38% | 1009.1 hPa | 0 mm | 0.45 m/s, 324° | - | - |
| 1777757455 | 14.44° C | 38% | 1009.1 hPa | 0 mm | 0.45 m/s, 324° | - | - |
| 1777756746 | 14.44° C | 38% | 1009.1 hPa | 0 mm | 0.45 m/s, 344° | - | - |
| 1777756554 | 14.44° C | 38% | 1009.1 hPa | 0 mm | 0.45 m/s, 344° | - | - |
| 1777755655 | 14.44° C | 34% | 1009 hPa | 0 mm | 0.45 m/s, 285° | - | - |
| 1777754754 | 15° C | 36% | 1009.1 hPa | 0 mm | 0.45 m/s, 311° | - | - |
* Rain latest hour (hover to see other rain measurements)
** Current wind speed in m/s (hover to see current wind gust speed)